sensor_id;sensor_type;location;lat;lon;timestamp;temperature;humidity
27534;DHT22;14973;51.460;7.008;2023-08-31T00:01:46;13.00;99.90
27534;DHT22;14973;51.460;7.008;2023-08-31T00:04:13;12.90;99.90
27534;DHT22;14973;51.460;7.008;2023-08-31T00:06:40;12.90;99.90
27534;DHT22;14973;51.460;7.008;2023-08-31T00:09:06;12.90;99.90
27534;DHT22;14973;51.460;7.008;2023-08-31T00:11:38;12.70;99.90
27534;DHT22;14973;51.460;7.008;2023-08-31T00:14:04;12.80;99.90
27534;DHT22;14973;51.460;7.008;2023-08-31T00:16:30;12.80;99.90
27534;DHT22;14973;51.460;7.008;2023-08-31T00:18:56;12.80;99.90
27534;DHT22;14973;51.460;7.008;2023-08-31T00:21:22;12.80;99.90
27534;DHT22;14973;51.460;7.008;2023-08-31T00:23:48;12.90;99.90
27534;DHT22;14973;51.460;7.008;2023-08-31T00:26:14;12.90;99.90
27534;DHT22;14973;51.460;7.008;2023-08-31T00:28:42;13.00;99.90
27534;DHT22;14973;51.460;7.008;2023-08-31T00:31:09;12.90;99.90
27534;DHT22;14973;51.460;7.008;2023-08-31T00:33:37;13.00;99.90
27534;DHT22;14973;51.460;7.008;2023-08-31T00:36:03;13.00;99.90
27534;DHT22;14973;51.460;7.008;2023-08-31T00:38:30;13.00;99.90
27534;DHT22;14973;51.460;7.008;2023-08-31T00:40:56;13.00;99.90
27534;DHT22;14973;51.460;7.008;2023-08-31T00:43:21;13.00;99.90
27534;DHT22;14973;51.460;7.008;2023-08-31T00:45:49;12.90;99.90
27534;DHT22;14973;51.460;7.008;2023-08-31T00:48:16;12.90;99.90
27534;DHT22;14973;51.460;7.008;2023-08-31T00:50:46;12.90;99.90
27534;DHT22;14973;51.460;7.008;2023-08-31T00:53:15;12.90;99.90
27534;DHT22;14973;51.460;7.008;2023-08-31T00:55:42;12.90;99.90
27534;DHT22;14973;51.460;7.008;2023-08-31T00:58:09;12.90;99.90
27534;DHT22;14973;51.460;7.008;2023-08-31T01:01:01;12.80;99.90
27534;DHT22;14973;51.460;7.008;2023-08-31T01:06:21;12.70;99.90
27534;DHT22;14973;51.460;7.008;2023-08-31T01:09:24;12.60;99.90
27534;DHT22;14973;51.460;7.008;2023-08-31T01:14:56;12.60;99.90
27534;DHT22;14973;51.460;7.008;2023-08-31T01:17:27;12.60;99.90
27534;DHT22;14973;51.460;7.008;2023-08-31T01:19:58;12.50;99.90
27534;DHT22;14973;51.460;7.008;2023-08-31T01:22:29;12.50;99.90
27534;DHT22;14973;51.460;7.008;2023-08-31T01:24:56;12.40;99.90
27534;DHT22;14973;51.460;7.008;2023-08-31T01:27:23;12.40;99.90
27534;DHT22;14973;51.460;7.008;2023-08-31T01:29:49;12.40;99.90
27534;DHT22;14973;51.460;7.008;2023-08-31T01:32:15;12.30;99.90
27534;DHT22;14973;51.460;7.008;2023-08-31T01:34:41;12.30;99.90
27534;DHT22;14973;51.460;7.008;2023-08-31T01:37:15;12.30;99.90
27534;DHT22;14973;51.460;7.008;2023-08-31T01:40:05;12.20;99.90
27534;DHT22;14973;51.460;7.008;2023-08-31T01:42:32;12.20;99.90
27534;DHT22;14973;51.460;7.008;2023-08-31T01:44:58;12.20;99.90
27534;DHT22;14973;51.460;7.008;2023-08-31T01:47:26;12.10;99.90
27534;DHT22;14973;51.460;7.008;2023-08-31T01:49:52;12.10;99.90
27534;DHT22;14973;51.460;7.008;2023-08-31T01:52:18;12.00;99.90
27534;DHT22;14973;51.460;7.008;2023-08-31T01:54:44;12.00;99.90
27534;DHT22;14973;51.460;7.008;2023-08-31T01:57:09;12.00;99.90
27534;DHT22;14973;51.460;7.008;2023-08-31T01:59:35;12.00;99.90
27534;DHT22;14973;51.460;7.008;2023-08-31T02:02:01;11.90;99.90
27534;DHT22;14973;51.460;7.008;2023-08-31T02:04:26;11.80;99.90
27534;DHT22;14973;51.460;7.008;2023-08-31T02:06:52;11.90;99.90
27534;DHT22;14973;51.460;7.008;2023-08-31T02:09:18;11.80;99.90
27534;DHT22;14973;51.460;7.008;2023-08-31T02:11:43;11.80;99.90
27534;DHT22;14973;51.460;7.008;2023-08-31T02:14:09;11.80;99.90
27534;DHT22;14973;51.460;7.008;2023-08-31T02:16:34;11.80;99.90
27534;DHT22;14973;51.460;7.008;2023-08-31T02:19:00;11.80;99.90
27534;DHT22;14973;51.460;7.008;2023-08-31T02:21:25;11.70;99.90
27534;DHT22;14973;51.460;7.008;2023-08-31T02:23:51;11.70;99.90
27534;DHT22;14973;51.460;7.008;2023-08-31T02:26:17;11.70;99.90
27534;DHT22;14973;51.460;7.008;2023-08-31T02:28:42;11.70;99.90
27534;DHT22;14973;51.460;7.008;2023-08-31T02:31:10;11.70;99.90
27534;DHT22;14973;51.460;7.008;2023-08-31T02:33:36;11.70;99.90
27534;DHT22;14973;51.460;7.008;2023-08-31T02:36:02;11.70;99.90
27534;DHT22;14973;51.460;7.008;2023-08-31T02:38:27;11.60;99.90
27534;DHT22;14973;51.460;7.008;2023-08-31T02:40:53;11.60;99.90
27534;DHT22;14973;51.460;7.008;2023-08-31T02:43:18;11.60;99.90
27534;DHT22;14973;51.460;7.008;2023-08-31T02:45:44;11.50;99.90
27534;DHT22;14973;51.460;7.008;2023-08-31T02:48:10;11.50;99.90
27534;DHT22;14973;51.460;7.008;2023-08-31T02:50:35;11.50;99.90
27534;DHT22;14973;51.460;7.008;2023-08-31T02:53:01;11.60;99.90
27534;DHT22;14973;51.460;7.008;2023-08-31T02:55:27;11.50;99.90
27534;DHT22;14973;51.460;7.008;2023-08-31T02:57:53;11.40;99.90
27534;DHT22;14973;51.460;7.008;2023-08-31T03:00:19;11.50;99.90
27534;DHT22;14973;51.460;7.008;2023-08-31T03:02:48;11.50;99.90
27534;DHT22;14973;51.460;7.008;2023-08-31T03:05:13;11.50;99.90
27534;DHT22;14973;51.460;7.008;2023-08-31T03:07:39;11.50;99.90
27534;DHT22;14973;51.460;7.008;2023-08-31T03:10:05;11.50;99.90
27534;DHT22;14973;51.460;7.008;2023-08-31T03:12:31;11.60;99.90
27534;DHT22;14973;51.460;7.008;2023-08-31T03:14:56;11.60;99.90
27534;DHT22;14973;51.460;7.008;2023-08-31T03:17:22;11.60;99.90
27534;DHT22;14973;51.460;7.008;2023-08-31T03:19:48;11.60;99.90
27534;DHT22;14973;51.460;7.008;2023-08-31T03:22:14;11.70;99.90
27534;DHT22;14973;51.460;7.008;2023-08-31T03:24:39;11.60;99.90
27534;DHT22;14973;51.460;7.008;2023-08-31T03:27:05;11.60;99.90
27534;DHT22;14973;51.460;7.008;2023-08-31T03:29:31;11.70;99.90
27534;DHT22;14973;51.460;7.008;2023-08-31T03:31:57;11.80;99.90
27534;DHT22;14973;51.460;7.008;2023-08-31T03:34:23;11.70;99.90
27534;DHT22;14973;51.460;7.008;2023-08-31T03:36:48;11.70;99.90
27534;DHT22;14973;51.460;7.008;2023-08-31T03:39:15;11.70;99.90
27534;DHT22;14973;51.460;7.008;2023-08-31T03:41:41;11.80;99.90
27534;DHT22;14973;51.460;7.008;2023-08-31T03:44:06;11.80;99.90
27534;DHT22;14973;51.460;7.008;2023-08-31T03:46:32;11.70;99.90
27534;DHT22;14973;51.460;7.008;2023-08-31T03:48:58;11.70;99.90
27534;DHT22;14973;51.460;7.008;2023-08-31T03:51:23;11.70;99.90
27534;DHT22;14973;51.460;7.008;2023-08-31T03:53:49;11.60;99.90
27534;DHT22;14973;51.460;7.008;2023-08-31T03:56:14;11.60;99.90
27534;DHT22;14973;51.460;7.008;2023-08-31T03:58:40;11.60;99.90
27534;DHT22;14973;51.460;7.008;2023-08-31T04:01:05;11.60;99.90
27534;DHT22;14973;51.460;7.008;2023-08-31T04:03:31;11.50;99.90
27534;DHT22;14973;51.460;7.008;2023-08-31T04:05:57;11.50;99.90
27534;DHT22;14973;51.460;7.008;2023-08-31T04:08:22;11.50;99.90
27534;DHT22;14973;51.460;7.008;2023-08-31T04:10:48;11.50;99.90
27534;DHT22;14973;51.460;7.008;2023-08-31T04:13:13;11.40;99.90
27534;DHT22;14973;51.460;7.008;2023-08-31T04:15:39;11.40;99.90
27534;DHT22;14973;51.460;7.008;2023-08-31T04:18:05;11.40;99.90
27534;DHT22;14973;51.460;7.008;2023-08-31T04:20:33;11.30;99.90
27534;DHT22;14973;51.460;7.008;2023-08-31T04:22:58;11.30;99.90
27534;DHT22;14973;51.460;7.008;2023-08-31T04:25:24;11.30;99.90
27534;DHT22;14973;51.460;7.008;2023-08-31T04:27:49;11.20;99.90
27534;DHT22;14973;51.460;7.008;2023-08-31T04:30:15;11.20;99.90
27534;DHT22;14973;51.460;7.008;2023-08-31T04:32:41;11.20;99.90
27534;DHT22;14973;51.460;7.008;2023-08-31T04:35:07;11.20;99.90
27534;DHT22;14973;51.460;7.008;2023-08-31T04:37:33;11.20;99.90
27534;DHT22;14973;51.460;7.008;2023-08-31T04:39:58;11.10;99.90
27534;DHT22;14973;51.460;7.008;2023-08-31T04:42:24;11.20;99.90
27534;DHT22;14973;51.460;7.008;2023-08-31T04:44:50;11.20;99.90
27534;DHT22;14973;51.460;7.008;2023-08-31T04:47:15;11.20;99.90
27534;DHT22;14973;51.460;7.008;2023-08-31T04:49:41;11.20;99.90
27534;DHT22;14973;51.460;7.008;2023-08-31T04:52:08;11.10;99.90
27534;DHT22;14973;51.460;7.008;2023-08-31T04:54:33;11.20;99.90
27534;DHT22;14973;51.460;7.008;2023-08-31T04:56:59;11.30;99.90
27534;DHT22;14973;51.460;7.008;2023-08-31T04:59:24;11.30;99.90
27534;DHT22;14973;51.460;7.008;2023-08-31T05:01:50;11.30;99.90
27534;DHT22;14973;51.460;7.008;2023-08-31T05:04:15;11.30;99.90
27534;DHT22;14973;51.460;7.008;2023-08-31T05:06:41;11.30;99.90
27534;DHT22;14973;51.460;7.008;2023-08-31T05:09:06;11.40;99.90
27534;DHT22;14973;51.460;7.008;2023-08-31T05:11:33;11.40;99.90
27534;DHT22;14973;51.460;7.008;2023-08-31T05:13:58;11.50;99.90
27534;DHT22;14973;51.460;7.008;2023-08-31T05:16:24;11.60;99.90
27534;DHT22;14973;51.460;7.008;2023-08-31T05:18:49;11.70;99.90
27534;DHT22;14973;51.460;7.008;2023-08-31T05:21:15;11.90;99.90
27534;DHT22;14973;51.460;7.008;2023-08-31T05:23:40;12.00;99.90
27534;DHT22;14973;51.460;7.008;2023-08-31T05:26:06;12.10;99.90
27534;DHT22;14973;51.460;7.008;2023-08-31T05:28:31;12.20;99.90
27534;DHT22;14973;51.460;7.008;2023-08-31T05:30:59;12.30;99.90
27534;DHT22;14973;51.460;7.008;2023-08-31T05:33:25;12.40;99.90
27534;DHT22;14973;51.460;7.008;2023-08-31T05:35:54;12.60;99.90
27534;DHT22;14973;51.460;7.008;2023-08-31T05:38:20;12.70;99.90
27534;DHT22;14973;51.460;7.008;2023-08-31T05:40:46;12.70;99.90
27534;DHT22;14973;51.460;7.008;2023-08-31T05:43:15;12.80;99.90
27534;DHT22;14973;51.460;7.008;2023-08-31T05:45:41;12.80;99.90
27534;DHT22;14973;51.460;7.008;2023-08-31T05:48:07;12.90;99.90
27534;DHT22;14973;51.460;7.008;2023-08-31T05:50:33;12.90;99.90
27534;DHT22;14973;51.460;7.008;2023-08-31T05:52:59;13.00;99.90
27534;DHT22;14973;51.460;7.008;2023-08-31T05:55:24;13.30;99.90
27534;DHT22;14973;51.460;7.008;2023-08-31T05:57:50;13.70;99.90
27534;DHT22;14973;51.460;7.008;2023-08-31T06:00:16;14.20;99.90
27534;DHT22;14973;51.460;7.008;2023-08-31T06:02:43;14.60;99.90
27534;DHT22;14973;51.460;7.008;2023-08-31T06:05:10;14.60;99.90
27534;DHT22;14973;51.460;7.008;2023-08-31T06:07:37;14.70;99.90
27534;DHT22;14973;51.460;7.008;2023-08-31T06:10:04;14.70;99.90
27534;DHT22;14973;51.460;7.008;2023-08-31T06:12:30;15.10;99.90
27534;DHT22;14973;51.460;7.008;2023-08-31T06:14:55;16.00;77.40
27534;DHT22;14973;51.460;7.008;2023-08-31T06:17:21;17.30;32.50
27534;DHT22;14973;51.460;7.008;2023-08-31T06:19:46;18.80;1.00
27534;DHT22;14973;51.460;7.008;2023-08-31T06:22:12;20.10;99.90
27534;DHT22;14973;51.460;7.008;2023-08-31T06:24:38;21.30;99.90
27534;DHT22;14973;51.460;7.008;2023-08-31T06:27:03;20.70;86.30
27534;DHT22;14973;51.460;7.008;2023-08-31T06:29:29;20.30;99.90
27534;DHT22;14973;51.460;7.008;2023-08-31T06:31:55;20.50;99.90
27534;DHT22;14973;51.460;7.008;2023-08-31T06:34:20;20.80;1.00
27534;DHT22;14973;51.460;7.008;2023-08-31T06:36:46;21.30;99.90
27534;DHT22;14973;51.460;7.008;2023-08-31T06:39:11;22.20;94.10
27534;DHT22;14973;51.460;7.008;2023-08-31T06:41:37;23.30;1.00
27534;DHT22;14973;51.460;7.008;2023-08-31T06:44:03;23.90;1.00
27534;DHT22;14973;51.460;7.008;2023-08-31T06:46:29;25.00;1.00
27534;DHT22;14973;51.460;7.008;2023-08-31T06:48:59;24.90;1.00
27534;DHT22;14973;51.460;7.008;2023-08-31T06:51:24;25.50;1.00
27534;DHT22;14973;51.460;7.008;2023-08-31T06:53:50;26.20;1.00
27534;DHT22;14973;51.460;7.008;2023-08-31T06:56:16;26.10;1.00
27534;DHT22;14973;51.460;7.008;2023-08-31T06:58:41;26.30;1.00
27534;DHT22;14973;51.460;7.008;2023-08-31T07:01:08;27.30;99.90
27534;DHT22;14973;51.460;7.008;2023-08-31T07:03:34;27.50;99.90
27534;DHT22;14973;51.460;7.008;2023-08-31T07:06:00;27.90;99.90
27534;DHT22;14973;51.460;7.008;2023-08-31T07:08:25;28.30;99.90
27534;DHT22;14973;51.460;7.008;2023-08-31T07:10:51;28.70;99.90
27534;DHT22;14973;51.460;7.008;2023-08-31T07:13:17;29.20;99.90
27534;DHT22;14973;51.460;7.008;2023-08-31T07:15:43;29.30;99.90
27534;DHT22;14973;51.460;7.008;2023-08-31T07:18:08;29.40;99.90
27534;DHT22;14973;51.460;7.008;2023-08-31T07:20:34;29.80;99.90
27534;DHT22;14973;51.460;7.008;2023-08-31T07:23:00;29.00;99.90
27534;DHT22;14973;51.460;7.008;2023-08-31T07:25:25;28.20;99.90
27534;DHT22;14973;51.460;7.008;2023-08-31T07:27:51;28.00;99.90
27534;DHT22;14973;51.460;7.008;2023-08-31T07:30:17;28.10;99.90
27534;DHT22;14973;51.460;7.008;2023-08-31T07:32:43;28.60;99.90
27534;DHT22;14973;51.460;7.008;2023-08-31T07:35:08;29.20;99.90
27534;DHT22;14973;51.460;7.008;2023-08-31T07:37:34;29.70;99.90
27534;DHT22;14973;51.460;7.008;2023-08-31T07:40:00;29.20;99.90
27534;DHT22;14973;51.460;7.008;2023-08-31T07:42:26;29.10;99.90
27534;DHT22;14973;51.460;7.008;2023-08-31T07:44:52;30.10;99.90
27534;DHT22;14973;51.460;7.008;2023-08-31T07:47:17;30.40;99.90
27534;DHT22;14973;51.460;7.008;2023-08-31T07:49:43;30.60;99.90
27534;DHT22;14973;51.460;7.008;2023-08-31T07:52:09;30.70;99.90
27534;DHT22;14973;51.460;7.008;2023-08-31T07:54:35;30.60;99.90
27534;DHT22;14973;51.460;7.008;2023-08-31T07:57:01;31.20;99.90
27534;DHT22;14973;51.460;7.008;2023-08-31T07:59:26;31.30;99.90
27534;DHT22;14973;51.460;7.008;2023-08-31T08:01:53;31.00;99.90
27534;DHT22;14973;51.460;7.008;2023-08-31T08:04:18;31.00;99.90
27534;DHT22;14973;51.460;7.008;2023-08-31T08:06:45;30.90;99.90
27534;DHT22;14973;51.460;7.008;2023-08-31T08:09:10;31.30;99.90
27534;DHT22;14973;51.460;7.008;2023-08-31T08:11:37;31.20;99.90
27534;DHT22;14973;51.460;7.008;2023-08-31T08:14:03;32.00;99.90
27534;DHT22;14973;51.460;7.008;2023-08-31T08:16:29;31.40;99.90
27534;DHT22;14973;51.460;7.008;2023-08-31T08:18:55;31.40;99.90
27534;DHT22;14973;51.460;7.008;2023-08-31T08:21:20;31.60;99.90
27534;DHT22;14973;51.460;7.008;2023-08-31T08:23:46;31.10;99.90
27534;DHT22;14973;51.460;7.008;2023-08-31T08:26:11;30.50;99.90
27534;DHT22;14973;51.460;7.008;2023-08-31T08:28:37;30.70;99.90
27534;DHT22;14973;51.460;7.008;2023-08-31T08:31:02;31.30;99.90
27534;DHT22;14973;51.460;7.008;2023-08-31T08:33:31;31.80;99.90
27534;DHT22;14973;51.460;7.008;2023-08-31T08:35:57;32.20;99.90
27534;DHT22;14973;51.460;7.008;2023-08-31T08:38:23;32.70;99.90
27534;DHT22;14973;51.460;7.008;2023-08-31T08:40:48;32.70;99.90
27534;DHT22;14973;51.460;7.008;2023-08-31T08:43:14;32.60;99.90
27534;DHT22;14973;51.460;7.008;2023-08-31T08:45:40;32.20;99.90
27534;DHT22;14973;51.460;7.008;2023-08-31T08:48:08;32.60;99.90
27534;DHT22;14973;51.460;7.008;2023-08-31T08:50:34;33.00;99.90
27534;DHT22;14973;51.460;7.008;2023-08-31T08:53:04;34.10;99.90
27534;DHT22;14973;51.460;7.008;2023-08-31T08:55:30;33.90;99.90
27534;DHT22;14973;51.460;7.008;2023-08-31T08:57:58;32.90;99.90
27534;DHT22;14973;51.460;7.008;2023-08-31T09:00:26;32.50;99.90
27534;DHT22;14973;51.460;7.008;2023-08-31T09:02:53;32.30;99.90
27534;DHT22;14973;51.460;7.008;2023-08-31T09:05:18;32.30;99.90
27534;DHT22;14973;51.460;7.008;2023-08-31T09:10:36;32.80;99.90
27534;DHT22;14973;51.460;7.008;2023-08-31T09:13:05;32.80;99.90
27534;DHT22;14973;51.460;7.008;2023-08-31T09:15:46;33.00;99.90
27534;DHT22;14973;51.460;7.008;2023-08-31T09:18:29;31.90;99.90
27534;DHT22;14973;51.460;7.008;2023-08-31T09:20:56;31.90;99.90
27534;DHT22;14973;51.460;7.008;2023-08-31T09:23:22;30.40;99.90
27534;DHT22;14973;51.460;7.008;2023-08-31T09:25:49;30.30;99.90
27534;DHT22;14973;51.460;7.008;2023-08-31T09:28:16;30.50;99.90
27534;DHT22;14973;51.460;7.008;2023-08-31T09:30:46;30.40;99.90
27534;DHT22;14973;51.460;7.008;2023-08-31T09:33:15;29.70;99.90
27534;DHT22;14973;51.460;7.008;2023-08-31T09:35:53;29.40;99.90
27534;DHT22;14973;51.460;7.008;2023-08-31T09:38:19;29.10;99.90
27534;DHT22;14973;51.460;7.008;2023-08-31T09:40:45;28.50;99.90
27534;DHT22;14973;51.460;7.008;2023-08-31T09:43:11;28.00;99.90
27534;DHT22;14973;51.460;7.008;2023-08-31T09:45:37;26.40;99.90
27534;DHT22;14973;51.460;7.008;2023-08-31T09:48:04;26.30;99.90
27534;DHT22;14973;51.460;7.008;2023-08-31T09:50:31;26.90;99.90
27534;DHT22;14973;51.460;7.008;2023-08-31T09:53:00;26.40;99.90
27534;DHT22;14973;51.460;7.008;2023-08-31T09:55:28;25.60;99.90
27534;DHT22;14973;51.460;7.008;2023-08-31T09:57:57;24.70;99.90
27534;DHT22;14973;51.460;7.008;2023-08-31T10:00:29;24.30;99.90
27534;DHT22;14973;51.460;7.008;2023-08-31T10:03:02;24.00;99.90
27534;DHT22;14973;51.460;7.008;2023-08-31T10:05:28;23.50;99.90
27534;DHT22;14973;51.460;7.008;2023-08-31T10:07:54;23.50;99.90
27534;DHT22;14973;51.460;7.008;2023-08-31T10:10:21;23.60;99.90
27534;DHT22;14973;51.460;7.008;2023-08-31T10:12:48;23.90;99.90
27534;DHT22;14973;51.460;7.008;2023-08-31T10:15:19;23.90;99.90
27534;DHT22;14973;51.460;7.008;2023-08-31T10:17:45;24.50;99.90
27534;DHT22;14973;51.460;7.008;2023-08-31T10:20:13;24.30;99.90
27534;DHT22;14973;51.460;7.008;2023-08-31T10:22:39;24.20;99.90
27534;DHT22;14973;51.460;7.008;2023-08-31T10:25:06;23.80;99.90
27534;DHT22;14973;51.460;7.008;2023-08-31T10:27:43;23.50;99.90
27534;DHT22;14973;51.460;7.008;2023-08-31T10:30:24;23.60;99.90
27534;DHT22;14973;51.460;7.008;2023-08-31T10:38:22;24.10;99.90
27534;DHT22;14973;51.460;7.008;2023-08-31T10:48:52;23.40;99.90
27534;DHT22;14973;51.460;7.008;2023-08-31T10:51:17;23.20;99.90
27534;DHT22;14973;51.460;7.008;2023-08-31T10:53:46;23.10;99.90
27534;DHT22;14973;51.460;7.008;2023-08-31T10:56:12;22.60;99.90
27534;DHT22;14973;51.460;7.008;2023-08-31T10:58:38;22.60;99.90
27534;DHT22;14973;51.460;7.008;2023-08-31T11:01:03;22.80;99.90
27534;DHT22;14973;51.460;7.008;2023-08-31T11:03:32;23.00;99.90
27534;DHT22;14973;51.460;7.008;2023-08-31T11:05:57;23.30;99.90
27534;DHT22;14973;51.460;7.008;2023-08-31T11:08:24;23.30;99.90
27534;DHT22;14973;51.460;7.008;2023-08-31T11:10:50;23.40;99.90
27534;DHT22;14973;51.460;7.008;2023-08-31T11:13:18;23.80;99.90
27534;DHT22;14973;51.460;7.008;2023-08-31T11:15:47;23.80;99.90
27534;DHT22;14973;51.460;7.008;2023-08-31T11:18:12;23.70;99.90
27534;DHT22;14973;51.460;7.008;2023-08-31T11:20:42;23.40;99.90
27534;DHT22;14973;51.460;7.008;2023-08-31T11:23:08;23.20;99.90
27534;DHT22;14973;51.460;7.008;2023-08-31T11:25:34;23.20;99.90
27534;DHT22;14973;51.460;7.008;2023-08-31T11:28:05;23.10;99.90
27534;DHT22;14973;51.460;7.008;2023-08-31T11:30:32;23.10;99.90
27534;DHT22;14973;51.460;7.008;2023-08-31T11:33:06;23.20;99.90
27534;DHT22;14973;51.460;7.008;2023-08-31T11:35:39;22.70;99.90
27534;DHT22;14973;51.460;7.008;2023-08-31T11:38:12;22.50;99.90
27534;DHT22;14973;51.460;7.008;2023-08-31T11:40:38;22.70;99.90
27534;DHT22;14973;51.460;7.008;2023-08-31T11:43:07;22.60;99.90
27534;DHT22;14973;51.460;7.008;2023-08-31T11:45:34;22.50;99.90
27534;DHT22;14973;51.460;7.008;2023-08-31T11:48:01;22.40;99.90
27534;DHT22;14973;51.460;7.008;2023-08-31T11:50:28;22.30;99.90
27534;DHT22;14973;51.460;7.008;2023-08-31T11:52:54;22.30;99.90
27534;DHT22;14973;51.460;7.008;2023-08-31T11:55:20;22.30;99.90
27534;DHT22;14973;51.460;7.008;2023-08-31T11:57:54;22.50;99.90
27534;DHT22;14973;51.460;7.008;2023-08-31T12:00:22;22.40;99.90
27534;DHT22;14973;51.460;7.008;2023-08-31T12:03:01;22.50;99.90
27534;DHT22;14973;51.460;7.008;2023-08-31T12:05:27;22.30;99.90
27534;DHT22;14973;51.460;7.008;2023-08-31T12:07:54;22.10;99.90
27534;DHT22;14973;51.460;7.008;2023-08-31T12:10:20;22.00;99.90
27534;DHT22;14973;51.460;7.008;2023-08-31T12:12:45;22.10;99.90
27534;DHT22;14973;51.460;7.008;2023-08-31T12:15:11;22.30;99.90
27534;DHT22;14973;51.460;7.008;2023-08-31T12:17:38;22.40;99.90
27534;DHT22;14973;51.460;7.008;2023-08-31T12:20:06;22.60;99.90
27534;DHT22;14973;51.460;7.008;2023-08-31T12:22:32;22.50;99.90
27534;DHT22;14973;51.460;7.008;2023-08-31T12:24:58;22.40;99.90
27534;DHT22;14973;51.460;7.008;2023-08-31T12:27:24;22.30;99.90
27534;DHT22;14973;51.460;7.008;2023-08-31T12:29:49;22.30;99.90
27534;DHT22;14973;51.460;7.008;2023-08-31T12:32:16;22.30;99.90
27534;DHT22;14973;51.460;7.008;2023-08-31T12:34:43;22.10;99.90
27534;DHT22;14973;51.460;7.008;2023-08-31T12:37:09;22.10;99.90
27534;DHT22;14973;51.460;7.008;2023-08-31T12:39:34;22.00;99.90
27534;DHT22;14973;51.460;7.008;2023-08-31T12:42:00;22.00;99.90
27534;DHT22;14973;51.460;7.008;2023-08-31T12:44:25;21.90;99.90
27534;DHT22;14973;51.460;7.008;2023-08-31T12:46:52;21.80;99.90
27534;DHT22;14973;51.460;7.008;2023-08-31T12:49:18;22.00;99.90
27534;DHT22;14973;51.460;7.008;2023-08-31T12:51:45;22.20;99.90
27534;DHT22;14973;51.460;7.008;2023-08-31T12:54:11;22.10;99.90
27534;DHT22;14973;51.460;7.008;2023-08-31T12:56:37;22.10;99.90
27534;DHT22;14973;51.460;7.008;2023-08-31T12:59:03;22.10;99.90
27534;DHT22;14973;51.460;7.008;2023-08-31T13:01:30;22.10;99.90
27534;DHT22;14973;51.460;7.008;2023-08-31T13:03:57;22.20;99.90
27534;DHT22;14973;51.460;7.008;2023-08-31T13:06:23;22.10;99.90
27534;DHT22;14973;51.460;7.008;2023-08-31T13:08:50;21.90;99.90
27534;DHT22;14973;51.460;7.008;2023-08-31T13:11:16;22.00;99.90
27534;DHT22;14973;51.460;7.008;2023-08-31T13:13:42;22.00;99.90
27534;DHT22;14973;51.460;7.008;2023-08-31T13:16:08;22.00;99.90
27534;DHT22;14973;51.460;7.008;2023-08-31T13:18:34;22.00;99.90
27534;DHT22;14973;51.460;7.008;2023-08-31T13:21:00;21.90;99.90
27534;DHT22;14973;51.460;7.008;2023-08-31T13:23:26;21.90;99.90
27534;DHT22;14973;51.460;7.008;2023-08-31T13:25:51;21.80;99.90
27534;DHT22;14973;51.460;7.008;2023-08-31T13:28:17;21.80;99.90
27534;DHT22;14973;51.460;7.008;2023-08-31T13:30:43;21.80;99.90
27534;DHT22;14973;51.460;7.008;2023-08-31T13:33:09;21.70;99.90
27534;DHT22;14973;51.460;7.008;2023-08-31T13:35:35;21.70;99.90
27534;DHT22;14973;51.460;7.008;2023-08-31T13:38:01;21.70;99.90
27534;DHT22;14973;51.460;7.008;2023-08-31T13:40:27;21.70;99.90
27534;DHT22;14973;51.460;7.008;2023-08-31T13:42:57;21.60;99.90
27534;DHT22;14973;51.460;7.008;2023-08-31T13:45:26;21.70;99.90
27534;DHT22;14973;51.460;7.008;2023-08-31T13:47:52;21.60;99.90
27534;DHT22;14973;51.460;7.008;2023-08-31T13:50:17;21.60;99.90
27534;DHT22;14973;51.460;7.008;2023-08-31T13:52:43;21.90;99.90
27534;DHT22;14973;51.460;7.008;2023-08-31T13:55:09;21.90;99.90
27534;DHT22;14973;51.460;7.008;2023-08-31T13:57:34;22.00;99.90
27534;DHT22;14973;51.460;7.008;2023-08-31T14:00:01;22.10;99.90
27534;DHT22;14973;51.460;7.008;2023-08-31T14:02:26;22.20;99.90
27534;DHT22;14973;51.460;7.008;2023-08-31T14:04:53;22.20;99.90
27534;DHT22;14973;51.460;7.008;2023-08-31T14:07:19;22.30;99.90
27534;DHT22;14973;51.460;7.008;2023-08-31T14:09:45;22.30;99.90
27534;DHT22;14973;51.460;7.008;2023-08-31T14:12:10;22.10;99.90
27534;DHT22;14973;51.460;7.008;2023-08-31T14:14:36;21.90;99.90
27534;DHT22;14973;51.460;7.008;2023-08-31T14:17:01;21.80;99.90
27534;DHT22;14973;51.460;7.008;2023-08-31T14:19:28;21.50;99.90
27534;DHT22;14973;51.460;7.008;2023-08-31T14:21:54;21.40;99.90
27534;DHT22;14973;51.460;7.008;2023-08-31T14:24:20;21.10;99.90
27534;DHT22;14973;51.460;7.008;2023-08-31T14:26:45;20.90;1.00
27534;DHT22;14973;51.460;7.008;2023-08-31T14:29:11;20.40;99.90
27534;DHT22;14973;51.460;7.008;2023-08-31T14:31:37;19.60;1.00
27534;DHT22;14973;51.460;7.008;2023-08-31T14:34:03;19.00;1.00
27534;DHT22;14973;51.460;7.008;2023-08-31T14:36:28;18.60;99.90
27534;DHT22;14973;51.460;7.008;2023-08-31T14:38:54;18.20;1.00
27534;DHT22;14973;51.460;7.008;2023-08-31T14:41:20;17.90;1.00
27534;DHT22;14973;51.460;7.008;2023-08-31T14:43:45;17.80;1.00
27534;DHT22;14973;51.460;7.008;2023-08-31T14:46:11;17.60;1.00
27534;DHT22;14973;51.460;7.008;2023-08-31T14:48:36;17.40;1.00
27534;DHT22;14973;51.460;7.008;2023-08-31T14:51:02;17.40;1.00
27534;DHT22;14973;51.460;7.008;2023-08-31T14:53:28;17.20;2.40
27534;DHT22;14973;51.460;7.008;2023-08-31T14:55:54;17.20;8.10
27534;DHT22;14973;51.460;7.008;2023-08-31T14:58:20;17.30;14.00
27534;DHT22;14973;51.460;7.008;2023-08-31T15:00:46;17.30;1.00
27534;DHT22;14973;51.460;7.008;2023-08-31T15:03:11;17.40;1.00
27534;DHT22;14973;51.460;7.008;2023-08-31T15:05:37;17.30;1.00
27534;DHT22;14973;51.460;7.008;2023-08-31T15:08:04;17.30;1.00
27534;DHT22;14973;51.460;7.008;2023-08-31T15:10:30;17.40;1.00
27534;DHT22;14973;51.460;7.008;2023-08-31T15:12:55;17.50;1.00
27534;DHT22;14973;51.460;7.008;2023-08-31T15:15:26;17.70;1.00
27534;DHT22;14973;51.460;7.008;2023-08-31T15:17:51;17.90;1.00
27534;DHT22;14973;51.460;7.008;2023-08-31T15:20:17;18.00;1.00
27534;DHT22;14973;51.460;7.008;2023-08-31T15:22:43;18.20;99.90
27534;DHT22;14973;51.460;7.008;2023-08-31T15:25:09;18.30;99.90
27534;DHT22;14973;51.460;7.008;2023-08-31T15:27:35;18.20;20.00
27534;DHT22;14973;51.460;7.008;2023-08-31T15:30:00;18.10;99.90
27534;DHT22;14973;51.460;7.008;2023-08-31T15:32:26;18.20;1.00
27534;DHT22;14973;51.460;7.008;2023-08-31T15:34:52;18.10;81.60
27534;DHT22;14973;51.460;7.008;2023-08-31T15:37:17;18.10;1.00
27534;DHT22;14973;51.460;7.008;2023-08-31T15:39:43;18.10;1.00
27534;DHT22;14973;51.460;7.008;2023-08-31T15:42:08;17.90;99.90
27534;DHT22;14973;51.460;7.008;2023-08-31T15:44:41;17.90;99.90
27534;DHT22;14973;51.460;7.008;2023-08-31T15:47:07;18.00;99.90
27534;DHT22;14973;51.460;7.008;2023-08-31T15:49:33;18.00;30.90
27534;DHT22;14973;51.460;7.008;2023-08-31T15:51:58;17.90;99.90